Elmo, MT (59915)

10:24 AM MST on February 12, 2016 (GMT -0700)
Polson Bay | | Change Station
CLOSE
Current Station
Personal Weather Station
Location: Polson, MT
Elevation: 2917 ft
Nearby Weather Stations

Elev 2917 ft 47.73 °N, 114.19 °W | Updated 43 seconds ago

Overcast
Overcast
39.2 °F
Feels Like 39 °F
N
0.0
Wind Variable Wind from SSW
Gusts 0.0 mph

Today
High -- | Low -- °F
--% Chance of Precip.
Yesterday
High -- | Low -- °F
Precip. -- in
Pressure 30.23 in
Visibility 1.0 miles
Clouds Overcast 8000 ft
Windchill 39 °F
Dew Point 17 °F
Humidity 40%
Rainfall 0.11 in
Snow Depth Not available.
7:49 AM 5:55 PM
Waxing Crescent, 22% visible
SPECI KMSO 121719Z 00000KT 1SM BR OVC080 03/02 A3023 RMK AO2 T00280022
Pressure 30.23 in
Visibility 1.0 miles
Clouds Overcast 8000 ft
Windchill 39 °F
Dew Point 17 °F
Humidity 40%
Rainfall 0.11 in
Snow Depth Not available.
7:49 AM 5:55 PM
Waxing Crescent, 22% visible
SPECI KMSO 121719Z 00000KT 1SM BR OVC080 03/02 A3023 RMK AO2 T00280022

10-Day Weather Forecast

Almanac

Astronomy

Feb. 12, 2016 Rise Set
Actual Time
Civil Twilight
Nautical Twilight
Astronomical Twilight
Moon
Length of Visible Light
Length of Day
Tomorrow will be .
, % of the Moon is Illuminated

Today's Extremes

State Highs State Lows

Community

WunderPhotos

Upload Photos

1,892,353 photos uploaded!

WunderBlog® & News

Nearby

Air Quality

  Air Quality AQ Index Pollutant
Not available.

Snow Depth

Station Depth Elevation

Earthquake Activity

City Distance Mag. Time & Date
Minimum magnitude displayed is 2.5.

Coastal Water Temperatures

Place Temperature

Stations

Nearby Weather Stations

Station Location Temp. Windchill Dew Point Humidity Wind Precip. Elev Updated Type
                   

Watches & Warnings

There are currently no watches in effect.